Time;durP1;ratioP1;P1;durP2;ratioP2;P2;SDS_P1;SDS_P2;PMS_P1;PMS_P2;Temp;Humidity;BMP_temperature;BMP_pressure;BME280_temperature;BME280_humidity;BME280_pressure;Samples;Min_cycle;Max_cycle;Signal;HPM_P1;HPM_P2
2023/08/20 00:01:29;;;;;;;13.48;8.27;;;;;;;;;;4996727;28;20049;-76
2023/08/20 00:03:55;;;;;;;10.43;7.63;;;;;;;;;;4996554;28;20053;-76
2023/08/20 00:06:21;;;;;;;10.30;8.05;;;;;;;;;;4996309;28;20034;-75
2023/08/20 00:08:47;;;;;;;9.07;8.13;;;;;;;;;;4995234;28;20026;-77
2023/08/20 00:11:13;;;;;;;10.10;8.10;;;;;;;;;;4995526;28;20029;-75
2023/08/20 00:13:39;;;;;;;9.35;7.63;;;;;;;;;;5012854;28;20068;-75
2023/08/20 00:16:05;;;;;;;13.90;9.05;;;;;;;;;;4995375;28;20129;-76
2023/08/20 00:18:34;;;;;;;11.88;8.90;;;;;;;;;;4995367;28;20037;-77
2023/08/20 00:21:00;;;;;;;13.95;8.68;;;;;;;;;;5013309;28;20022;-76
2023/08/20 00:23:26;;;;;;;10.82;8.90;;;;;;;;;;4995576;28;20021;-76
2023/08/20 00:25:52;;;;;;;10.98;8.70;;;;;;;;;;4995273;28;20094;-76
2023/08/20 00:28:19;;;;;;;13.95;8.27;;;;;;;;;;4995376;28;20049;-75
2023/08/20 00:30:45;;;;;;;10.80;8.82;;;;;;;;;;4994914;28;20108;-77
2023/08/20 00:33:10;;;;;;;18.83;9.50;;;;;;;;;;5011658;28;20510;-76
2023/08/20 00:35:36;;;;;;;20.80;9.18;;;;;;;;;;5012639;28;20030;-76
2023/08/20 00:38:02;;;;;;;14.68;8.55;;;;;;;;;;4995598;28;20462;-74
2023/08/20 00:40:27;;;;;;;13.38;8.98;;;;;;;;;;4995093;28;20058;-76
2023/08/20 00:42:54;;;;;;;15.07;9.20;;;;;;;;;;4995084;28;20057;-77
2023/08/20 00:45:20;;;;;;;10.88;8.45;;;;;;;;;;4994982;28;20037;-76
2023/08/20 00:47:46;;;;;;;13.68;8.77;;;;;;;;;;4994932;28;20029;-77
2023/08/20 00:50:11;;;;;;;10.32;7.93;;;;;;;;;;4995370;28;20014;-76
2023/08/20 00:52:37;;;;;;;12.77;9.13;;;;;;;;;;4995446;28;20117;-76
2023/08/20 00:55:09;;;;;;;10.95;8.40;;;;;;;;;;4994950;28;20028;-78
2023/08/20 00:57:37;;;;;;;10.70;8.65;;;;;;;;;;4994473;28;20394;-78
2023/08/20 01:00:06;;;;;;;12.57;9.55;;;;;;;;;;4994980;28;20045;-79
2023/08/20 01:02:34;;;;;;;12.90;8.63;;;;;;;;;;4994786;28;20038;-77
2023/08/20 01:05:01;;;;;;;12.20;9.38;;;;;;;;;;4994575;28;20113;-78
2023/08/20 01:08:04;;;;;;;11.73;9.00;;;;;;;;;;4994468;28;20052;-79
2023/08/20 01:10:57;;;;;;;14.18;9.65;;;;;;;;;;4994265;28;20037;-79
2023/08/20 01:13:23;;;;;;;10.13;8.95;;;;;;;;;;5002151;28;20036;-79
2023/08/20 01:15:49;;;;;;;11.80;9.30;;;;;;;;;;5011890;28;20046;-77
2023/08/20 01:18:14;;;;;;;13.40;9.88;;;;;;;;;;5012047;28;20029;-79
2023/08/20 01:20:47;;;;;;;12.07;9.80;;;;;;;;;;4994156;28;20084;-79
2023/08/20 01:23:31;;;;;;;10.60;9.13;;;;;;;;;;4994432;28;20112;-77
2023/08/20 01:26:44;;;;;;;12.38;8.63;;;;;;;;;;4993981;28;20053;-78
2023/08/20 01:29:11;;;;;;;15.25;8.98;;;;;;;;;;4959399;28;20037;-79
2023/08/20 01:31:38;;;;;;;13.32;9.27;;;;;;;;;;4994087;28;20029;-76
2023/08/20 01:34:04;;;;;;;12.18;10.18;;;;;;;;;;5010615;28;20029;-78
2023/08/20 01:36:29;;;;;;;13.52;10.60;;;;;;;;;;5011928;28;20033;-78
2023/08/20 01:38:56;;;;;;;13.10;10.15;;;;;;;;;;4993794;28;20050;-78
2023/08/20 01:41:21;;;;;;;16.50;10.18;;;;;;;;;;4994027;28;20030;-78
2023/08/20 01:43:47;;;;;;;14.13;9.40;;;;;;;;;;4993148;28;20041;-78
2023/08/20 01:46:13;;;;;;;10.13;9.02;;;;;;;;;;4993921;28;20036;-79
2023/08/20 01:48:38;;;;;;;14.75;10.10;;;;;;;;;;4993591;28;20022;-78
2023/08/20 01:51:04;;;;;;;12.20;8.95;;;;;;;;;;4993518;28;20036;-78
2023/08/20 01:53:29;;;;;;;13.82;9.45;;;;;;;;;;4993560;28;20120;-78
2023/08/20 01:55:56;;;;;;;11.90;9.75;;;;;;;;;;4993388;28;20022;-78
2023/08/20 01:58:21;;;;;;;13.98;9.52;;;;;;;;;;4993597;28;20479;-78
2023/08/20 02:00:48;;;;;;;12.15;10.25;;;;;;;;;;5011025;28;20030;-78
2023/08/20 02:03:14;;;;;;;12.20;10.20;;;;;;;;;;4993605;28;20021;-78
2023/08/20 02:05:40;;;;;;;17.08;9.70;;;;;;;;;;5011120;28;20251;-78
2023/08/20 02:08:05;;;;;;;12.52;10.20;;;;;;;;;;4993222;28;20034;-78
2023/08/20 02:10:31;;;;;;;13.48;10.13;;;;;;;;;;5010725;28;20022;-78
2023/08/20 02:12:56;;;;;;;12.48;10.25;;;;;;;;;;4992864;28;20021;-78
2023/08/20 02:15:22;;;;;;;15.68;10.32;;;;;;;;;;4993090;28;20050;-79
2023/08/20 02:17:47;;;;;;;12.95;10.52;;;;;;;;;;4993063;28;20112;-78
2023/08/20 02:20:13;;;;;;;12.30;9.95;;;;;;;;;;4994772;28;20021;-77
2023/08/20 02:22:40;;;;;;;13.55;9.70;;;;;;;;;;4995624;28;20100;-77
2023/08/20 02:25:05;;;;;;;12.25;9.77;;;;;;;;;;4994541;28;20655;-79
2023/08/20 02:27:31;;;;;;;16.23;12.95;;;;;;;;;;5014336;28;20040;-79
2023/08/20 02:29:56;;;;;;;15.30;10.88;;;;;;;;;;4996918;28;20394;-78
2023/08/20 02:32:22;;;;;;;16.58;9.32;;;;;;;;;;4997877;28;20370;-78
2023/08/20 02:34:51;;;;;;;22.58;12.05;;;;;;;;;;5012369;28;20089;-76
2023/08/20 02:37:17;;;;;;;12.40;10.07;;;;;;;;;;5011565;28;20030;-77
2023/08/20 02:39:43;;;;;;;12.63;9.27;;;;;;;;;;4995287;28;20513;-78
2023/08/20 02:42:08;;;;;;;12.38;9.95;;;;;;;;;;5011395;28;20108;-78
2023/08/20 02:44:33;;;;;;;17.35;10.75;;;;;;;;;;4993257;28;20574;-78
2023/08/20 02:46:59;;;;;;;38.92;11.55;;;;;;;;;;4993428;28;20084;-78
2023/08/20 02:49:24;;;;;;;15.77;10.15;;;;;;;;;;4993373;28;20077;-78
2023/08/20 02:51:50;;;;;;;13.02;10.23;;;;;;;;;;4992847;28;20045;-78
2023/08/20 02:54:15;;;;;;;12.82;10.27;;;;;;;;;;5010743;28;20018;-78
2023/08/20 02:56:41;;;;;;;13.82;9.90;;;;;;;;;;4996411;28;20379;-77
2023/08/20 02:59:08;;;;;;;14.52;10.00;;;;;;;;;;4997020;28;20772;-78
2023/08/20 03:01:34;;;;;;;12.60;10.82;;;;;;;;;;4997094;28;20026;-78
2023/08/20 03:03:59;;;;;;;14.50;10.82;;;;;;;;;;4997091;28;20021;-78
2023/08/20 03:06:28;;;;;;;12.40;10.52;;;;;;;;;;4997334;28;20414;-78
2023/08/20 03:08:53;;;;;;;17.63;10.63;;;;;;;;;;4997605;28;20663;-79
2023/08/20 03:11:19;;;;;;;15.70;10.00;;;;;;;;;;4998261;28;20152;-79
2023/08/20 03:13:45;;;;;;;11.60;9.52;;;;;;;;;;5016068;28;20376;-79
2023/08/20 03:16:12;;;;;;;22.02;11.25;;;;;;;;;;4998489;28;20186;-76
2023/08/20 03:18:37;;;;;;;11.48;10.27;;;;;;;;;;4997953;28;20026;-75
2023/08/20 03:21:03;;;;;;;19.20;11.60;;;;;;;;;;4997839;28;20536;-76
2023/08/20 03:23:29;;;;;;;13.02;10.10;;;;;;;;;;4997351;28;20057;-76
2023/08/20 03:25:58;;;;;;;13.60;10.43;;;;;;;;;;5014641;28;20362;-75
2023/08/20 03:28:24;;;;;;;15.88;10.52;;;;;;;;;;4996853;28;20088;-75
2023/08/20 03:30:49;;;;;;;17.33;11.27;;;;;;;;;;4996377;28;20029;-75
2023/08/20 03:33:16;;;;;;;18.95;12.27;;;;;;;;;;4996349;28;20044;-78
2023/08/20 03:35:42;;;;;;;14.88;10.60;;;;;;;;;;4996773;28;20022;-75
2023/08/20 03:38:08;;;;;;;11.32;10.13;;;;;;;;;;4996985;28;20368;-76
2023/08/20 03:40:33;;;;;;;11.77;10.30;;;;;;;;;;4996403;28;20091;-77
2023/08/20 03:42:58;;;;;;;11.38;10.18;;;;;;;;;;5014052;28;20037;-77
2023/08/20 03:45:24;;;;;;;16.35;10.15;;;;;;;;;;4996633;28;20033;-77
2023/08/20 03:47:49;;;;;;;13.27;10.38;;;;;;;;;;4996239;28;20260;-76
2023/08/20 03:50:15;;;;;;;11.65;9.80;;;;;;;;;;4996347;28;20032;-76
2023/08/20 03:52:40;;;;;;;12.68;9.82;;;;;;;;;;4996229;28;20462;-76
2023/08/20 03:55:06;;;;;;;16.48;9.90;;;;;;;;;;5014471;28;20590;-76
2023/08/20 03:57:32;;;;;;;13.43;10.50;;;;;;;;;;4998403;28;20026;-75
2023/08/20 03:59:57;;;;;;;16.27;10.32;;;;;;;;;;4998257;28;20034;-76
2023/08/20 04:02:24;;;;;;;14.98;12.10;;;;;;;;;;5014429;28;20021;-76
2023/08/20 04:04:49;;;;;;;18.70;11.68;;;;;;;;;;4997917;28;20038;-76
2023/08/20 04:07:14;;;;;;;14.25;11.15;;;;;;;;;;4997935;28;20133;-76
2023/08/20 04:09:42;;;;;;;12.75;10.32;;;;;;;;;;4997578;28;20371;-76
2023/08/20 04:12:08;;;;;;;15.70;11.15;;;;;;;;;;5014761;28;20033;-75
2023/08/20 04:14:33;;;;;;;12.80;10.68;;;;;;;;;;4996936;28;20084;-76
2023/08/20 04:16:59;;;;;;;13.63;10.95;;;;;;;;;;5015379;28;20810;-76
2023/08/20 04:19:24;;;;;;;18.95;11.20;;;;;;;;;;5002772;28;20026;-76
2023/08/20 04:21:51;;;;;;;14.15;11.13;;;;;;;;;;5003517;28;20033;-75
2023/08/20 04:24:16;;;;;;;16.05;9.70;;;;;;;;;;5015148;28;20028;-77
2023/08/20 04:26:43;;;;;;;11.43;10.20;;;;;;;;;;4999807;28;20471;-76
2023/08/20 04:29:09;;;;;;;16.05;10.13;;;;;;;;;;5017861;28;20021;-76
2023/08/20 04:31:35;;;;;;;15.32;11.32;;;;;;;;;;4998594;28;20032;-76
2023/08/20 04:34:00;;;;;;;20.13;10.82;;;;;;;;;;4996898;28;20038;-76
2023/08/20 04:36:26;;;;;;;17.13;11.60;;;;;;;;;;5013579;28;20029;-76
2023/08/20 04:38:51;;;;;;;14.10;11.10;;;;;;;;;;4995160;28;20054;-76
2023/08/20 04:41:16;;;;;;;18.20;12.50;;;;;;;;;;4995414;28;20121;-76
2023/08/20 04:43:42;;;;;;;14.10;10.57;;;;;;;;;;4995654;28;20033;-76
2023/08/20 04:46:08;;;;;;;11.75;10.27;;;;;;;;;;4995882;28;20490;-76
2023/08/20 04:48:33;;;;;;;15.82;10.93;;;;;;;;;;5013459;28;20017;-77
2023/08/20 04:51:00;;;;;;;13.45;11.23;;;;;;;;;;4994822;28;20060;-74
2023/08/20 04:53:26;;;;;;;17.48;10.85;;;;;;;;;;4995136;28;20044;-75
2023/08/20 04:55:51;;;;;;;15.20;10.27;;;;;;;;;;4994699;28;20038;-75
2023/08/20 04:58:17;;;;;;;14.35;10.55;;;;;;;;;;5012558;28;20450;-77
2023/08/20 05:00:42;;;;;;;11.98;10.68;;;;;;;;;;4995465;28;20497;-76
2023/08/20 05:03:08;;;;;;;16.70;11.43;;;;;;;;;;5012048;28;20022;-77
2023/08/20 05:05:33;;;;;;;20.70;11.88;;;;;;;;;;5012258;28;20029;-77
2023/08/20 05:07:59;;;;;;;23.13;11.95;;;;;;;;;;4994403;28;20105;-77
2023/08/20 05:10:24;;;;;;;11.43;10.18;;;;;;;;;;4994637;28;20036;-75
2023/08/20 05:12:50;;;;;;;13.68;10.18;;;;;;;;;;4994398;28;20034;-76
2023/08/20 05:15:15;;;;;;;16.48;11.35;;;;;;;;;;5012156;28;20053;-76
2023/08/20 05:17:41;;;;;;;16.67;10.27;;;;;;;;;;5010056;28;20576;-76
2023/08/20 05:20:08;;;;;;;20.90;10.63;;;;;;;;;;5010927;28;20374;-76
2023/08/20 05:22:34;;;;;;;12.13;10.02;;;;;;;;;;4994701;28;20038;-76
2023/08/20 05:24:59;;;;;;;11.90;10.57;;;;;;;;;;4994080;28;20025;-75
2023/08/20 05:27:25;;;;;;;13.45;10.25;;;;;;;;;;4994213;28;20036;-76
2023/08/20 05:29:50;;;;;;;14.50;11.82;;;;;;;;;;4994207;28;20026;-78
2023/08/20 05:32:16;;;;;;;12.82;10.10;;;;;;;;;;5012119;28;20026;-77
2023/08/20 05:34:42;;;;;;;12.48;10.75;;;;;;;;;;5011845;28;20038;-76
2023/08/20 05:37:08;;;;;;;12.98;9.15;;;;;;;;;;5010379;28;20041;-76
2023/08/20 05:39:40;;;;;;;11.73;9.98;;;;;;;;;;5012194;28;20024;-76
2023/08/20 05:42:05;;;;;;;11.25;10.07;;;;;;;;;;4994410;28;20018;-76
2023/08/20 05:44:31;;;;;;;14.23;12.20;;;;;;;;;;4994021;28;20553;-76
2023/08/20 05:46:56;;;;;;;13.38;10.65;;;;;;;;;;5011548;28;20084;-76
2023/08/20 05:49:22;;;;;;;18.63;10.63;;;;;;;;;;4994062;28;20053;-77
2023/08/20 05:51:48;;;;;;;14.23;10.00;;;;;;;;;;4993874;28;20064;-76
2023/08/20 05:54:14;;;;;;;11.63;10.25;;;;;;;;;;5011090;28;20076;-76
2023/08/20 05:56:41;;;;;;;13.10;10.07;;;;;;;;;;4993705;28;20513;-75
2023/08/20 05:59:07;;;;;;;13.70;10.90;;;;;;;;;;4993442;28;20079;-76
2023/08/20 06:01:32;;;;;;;12.05;10.48;;;;;;;;;;4993524;28;20120;-75
2023/08/20 06:03:58;;;;;;;11.23;9.80;;;;;;;;;;4993424;28;20036;-76
2023/08/20 06:06:25;;;;;;;14.55;10.02;;;;;;;;;;4993737;28;20551;-76
2023/08/20 06:08:50;;;;;;;13.20;10.35;;;;;;;;;;4993755;28;20603;-77
2023/08/20 06:11:16;;;;;;;12.48;10.20;;;;;;;;;;4993611;28;20077;-76
2023/08/20 06:13:41;;;;;;;12.25;10.65;;;;;;;;;;4993497;28;20021;-77
2023/08/20 06:16:07;;;;;;;15.82;10.73;;;;;;;;;;4993330;28;20057;-77
2023/08/20 06:18:33;;;;;;;12.15;10.27;;;;;;;;;;4993261;28;20029;-76
2023/08/20 06:20:59;;;;;;;13.90;10.43;;;;;;;;;;4993364;28;20038;-76
2023/08/20 06:23:25;;;;;;;11.77;10.27;;;;;;;;;;4993922;28;20097;-76
2023/08/20 06:25:51;;;;;;;14.63;10.63;;;;;;;;;;4993780;28;20604;-76
2023/08/20 06:28:17;;;;;;;15.55;11.60;;;;;;;;;;4993187;28;20033;-77
2023/08/20 06:30:44;;;;;;;12.65;9.98;;;;;;;;;;4993028;28;20034;-76
2023/08/20 06:33:10;;;;;;;13.35;10.88;;;;;;;;;;4992827;28;20375;-76
2023/08/20 06:35:35;;;;;;;12.50;9.90;;;;;;;;;;4993238;28;20026;-78
2023/08/20 06:38:01;;;;;;;18.88;11.10;;;;;;;;;;4993165;28;20038;-76
2023/08/20 06:40:26;;;;;;;12.02;9.63;;;;;;;;;;4993019;28;20495;-76
2023/08/20 06:42:53;;;;;;;13.40;10.27;;;;;;;;;;4993362;28;20080;-76
2023/08/20 06:45:18;;;;;;;13.48;11.18;;;;;;;;;;4994587;28;20473;-75
2023/08/20 06:47:44;;;;;;;11.25;10.07;;;;;;;;;;4995714;28;20030;-75
2023/08/20 06:50:12;;;;;;;18.75;10.43;;;;;;;;;;4995588;28;20026;-76
2023/08/20 06:52:38;;;;;;;14.77;10.52;;;;;;;;;;4995488;28;20408;-74
2023/08/20 06:55:04;;;;;;;11.88;9.88;;;;;;;;;;4994295;28;20076;-76
2023/08/20 06:57:29;;;;;;;12.70;9.88;;;;;;;;;;5010712;28;20041;-76
2023/08/20 06:59:55;;;;;;;16.40;10.43;;;;;;;;;;4993449;28;20038;-76
2023/08/20 07:02:21;;;;;;;12.20;10.23;;;;;;;;;;4992815;28;20049;-76
2023/08/20 07:04:51;;;;;;;14.25;10.80;;;;;;;;;;4998903;28;20026;-76
2023/08/20 07:07:17;;;;;;;12.27;10.15;;;;;;;;;;5013210;28;20596;-78
2023/08/20 07:09:45;;;;;;;11.35;9.85;;;;;;;;;;5014032;28;20608;-78
2023/08/20 07:12:11;;;;;;;16.52;10.30;;;;;;;;;;5014218;28;20036;-78
2023/08/20 07:14:38;;;;;;;13.63;10.98;;;;;;;;;;5013756;28;20029;-76
2023/08/20 07:17:05;;;;;;;14.98;10.68;;;;;;;;;;5014162;28;20060;-78
2023/08/20 07:19:32;;;;;;;14.48;10.25;;;;;;;;;;5013484;28;20522;-75
2023/08/20 07:22:01;;;;;;;13.05;9.88;;;;;;;;;;5013197;28;20040;-78
2023/08/20 07:24:29;;;;;;;12.02;10.00;;;;;;;;;;5031506;28;20109;-75
2023/08/20 07:27:00;;;;;;;12.68;10.38;;;;;;;;;;5031672;28;20037;-77
2023/08/20 07:29:29;;;;;;;18.52;10.27;;;;;;;;;;5031388;28;20033;-75
2023/08/20 07:31:57;;;;;;;14.93;10.98;;;;;;;;;;5032109;28;20489;-76
2023/08/20 07:34:23;;;;;;;14.23;9.82;;;;;;;;;;5030664;28;20025;-79
2023/08/20 07:36:49;;;;;;;21.40;11.27;;;;;;;;;;5015054;28;20121;-80
2023/08/20 07:39:26;;;;;;;14.48;9.73;;;;;;;;;;5021795;28;20025;-79
2023/08/20 07:41:53;;;;;;;14.95;10.43;;;;;;;;;;5040314;28;20049;-81
2023/08/20 07:44:19;;;;;;;13.43;9.45;;;;;;;;;;5024284;28;20064;-79
2023/08/20 07:46:45;;;;;;;14.20;9.95;;;;;;;;;;5024525;28;20037;-80
2023/08/20 07:49:16;;;;;;;10.70;9.60;;;;;;;;;;5025836;28;20059;-81
2023/08/20 07:51:45;;;;;;;15.68;9.85;;;;;;;;;;5025441;28;20087;-81
2023/08/20 07:54:19;;;;;;;11.02;9.85;;;;;;;;;;5024325;28;20033;-79
2023/08/20 07:56:46;;;;;;;14.13;11.02;;;;;;;;;;5025364;28;20501;-80
2023/08/20 07:59:17;;;;;;;20.10;10.23;;;;;;;;;;5025037;28;20184;-79
2023/08/20 08:01:43;;;;;;;12.48;10.07;;;;;;;;;;5042117;28;20068;-80
2023/08/20 08:04:13;;;;;;;12.18;9.82;;;;;;;;;;5041640;28;20033;-79
2023/08/20 08:06:39;;;;;;;12.88;10.68;;;;;;;;;;5042707;28;20030;-79
2023/08/20 08:09:26;;;;;;;14.55;10.40;;;;;;;;;;5042418;28;20044;-79
2023/08/20 08:11:53;;;;;;;14.18;10.10;;;;;;;;;;5043109;28;20446;-78
2023/08/20 08:14:24;;;;;;;11.75;9.70;;;;;;;;;;5040909;28;20053;-79
2023/08/20 08:16:50;;;;;;;11.63;9.95;;;;;;;;;;5046479;28;20379;-81
2023/08/20 08:19:18;;;;;;;18.98;10.73;;;;;;;;;;5048601;28;20033;-80
2023/08/20 08:21:45;;;;;;;16.88;11.25;;;;;;;;;;5017028;28;20037;-79
2023/08/20 08:24:12;;;;;;;14.98;10.98;;;;;;;;;;5013613;28;20067;-79
2023/08/20 08:26:42;;;;;;;12.60;10.52;;;;;;;;;;5043847;28;20034;-77
2023/08/20 08:29:09;;;;;;;18.80;11.77;;;;;;;;;;5041095;28;20101;-81
2023/08/20 08:31:35;;;;;;;16.10;11.02;;;;;;;;;;5023519;28;20037;-79
2023/08/20 08:34:03;;;;;;;19.92;10.80;;;;;;;;;;5041603;28;20426;-79
2023/08/20 08:36:34;;;;;;;15.40;10.98;;;;;;;;;;5025887;28;20132;-80
2023/08/20 08:39:01;;;;;;;15.23;11.25;;;;;;;;;;5041750;28;20095;-78
2023/08/20 08:41:28;;;;;;;16.88;12.10;;;;;;;;;;5042196;28;20093;-80
2023/08/20 08:43:56;;;;;;;15.52;12.63;;;;;;;;;;5041966;28;20033;-80
2023/08/20 08:46:25;;;;;;;17.67;12.32;;;;;;;;;;5043502;28;20029;-80
2023/08/20 08:48:52;;;;;;;18.35;13.15;;;;;;;;;;5024817;28;20103;-81
2023/08/20 08:51:18;;;;;;;19.02;12.65;;;;;;;;;;5038783;28;20041;-80
2023/08/20 08:53:44;;;;;;;18.40;12.77;;;;;;;;;;5041661;28;20048;-79
2023/08/20 08:56:11;;;;;;;14.85;12.68;;;;;;;;;;5041060;28;20040;-79
2023/08/20 08:58:38;;;;;;;15.38;12.77;;;;;;;;;;5041370;28;20078;-79
2023/08/20 09:01:07;;;;;;;17.20;14.30;;;;;;;;;;5039126;28;20124;-80
2023/08/20 09:03:33;;;;;;;16.27;13.03;;;;;;;;;;5021874;28;20060;-80
2023/08/20 09:06:03;;;;;;;18.33;13.27;;;;;;;;;;5022792;28;20037;-79
2023/08/20 09:08:36;;;;;;;18.42;13.88;;;;;;;;;;5023809;28;20029;-79
2023/08/20 09:11:02;;;;;;;16.95;13.15;;;;;;;;;;5022902;28;20514;-79
2023/08/20 09:13:46;;;;;;;15.07;12.38;;;;;;;;;;5024186;28;20034;-82
2023/08/20 09:16:14;;;;;;;15.43;12.40;;;;;;;;;;5039868;28;20050;-78
2023/08/20 09:18:41;;;;;;;17.02;12.30;;;;;;;;;;5039709;28;20041;-79
2023/08/20 09:21:11;;;;;;;18.42;12.05;;;;;;;;;;5040000;28;20089;-78
2023/08/20 09:23:45;;;;;;;19.90;12.82;;;;;;;;;;5023061;28;20026;-80
2023/08/20 09:26:11;;;;;;;15.48;13.02;;;;;;;;;;5022597;28;20064;-80
2023/08/20 09:28:44;;;;;;;17.55;12.57;;;;;;;;;;5039799;28;20026;-80
2023/08/20 09:31:17;;;;;;;21.40;12.73;;;;;;;;;;5040252;28;20116;-79
2023/08/20 09:33:57;;;;;;;21.58;12.27;;;;;;;;;;5022361;28;20033;-80
2023/08/20 09:36:37;;;;;;;19.83;13.10;;;;;;;;;;5030941;28;20128;-78
2023/08/20 09:39:05;;;;;;;15.85;11.18;;;;;;;;;;5014290;28;20270;-77
2023/08/20 09:41:32;;;;;;;18.20;12.40;;;;;;;;;;5014536;28;20465;-76
2023/08/20 09:44:02;;;;;;;15.85;13.32;;;;;;;;;;5033717;28;20414;-77
2023/08/20 09:46:32;;;;;;;21.38;13.35;;;;;;;;;;5015032;28;20029;-75
2023/08/20 09:48:58;;;;;;;19.05;13.60;;;;;;;;;;5031652;28;20025;-76
2023/08/20 09:51:29;;;;;;;15.60;12.82;;;;;;;;;;5015102;28;20091;-78
2023/08/20 09:54:10;;;;;;;15.52;13.63;;;;;;;;;;5014932;28;20060;-78
2023/08/20 09:56:39;;;;;;;16.00;12.45;;;;;;;;;;5032991;28;20092;-76
2023/08/20 09:59:06;;;;;;;19.20;13.13;;;;;;;;;;5015463;28;20036;-77
2023/08/20 10:01:33;;;;;;;15.45;12.65;;;;;;;;;;5015860;28;20079;-76
2023/08/20 10:04:00;;;;;;;15.25;12.80;;;;;;;;;;5016536;28;20029;-77
2023/08/20 10:06:26;;;;;;;19.13;12.32;;;;;;;;;;5034616;28;20032;-77
2023/08/20 10:08:54;;;;;;;16.77;12.07;;;;;;;;;;5017124;28;20167;-75
2023/08/20 10:11:22;;;;;;;15.80;12.35;;;;;;;;;;5017624;28;20037;-77
2023/08/20 10:13:50;;;;;;;18.73;14.50;;;;;;;;;;5017936;28;20097;-75
2023/08/20 10:16:22;;;;;;;15.02;13.05;;;;;;;;;;5017955;28;20049;-77
2023/08/20 10:18:48;;;;;;;18.05;12.93;;;;;;;;;;5034637;28;20052;-76
2023/08/20 10:21:16;;;;;;;16.05;12.38;;;;;;;;;;5015667;28;20071;-78
2023/08/20 10:23:48;;;;;;;18.60;11.55;;;;;;;;;;5018861;28;20029;-77
2023/08/20 10:26:16;;;;;;;14.68;11.02;;;;;;;;;;5015525;28;20033;-77
2023/08/20 10:28:43;;;;;;;12.48;11.18;;;;;;;;;;5015283;28;20067;-77
2023/08/20 10:31:12;;;;;;;14.68;11.60;;;;;;;;;;5014024;28;20029;-79
2023/08/20 10:33:48;;;;;;;18.67;10.85;;;;;;;;;;5014413;28;20083;-76
2023/08/20 10:36:22;;;;;;;15.32;11.20;;;;;;;;;;5030359;28;20033;-76
2023/08/20 10:38:48;;;;;;;13.73;10.50;;;;;;;;;;5014121;28;20029;-76
2023/08/20 10:41:18;;;;;;;10.75;9.70;;;;;;;;;;5031235;28;20044;-78
2023/08/20 10:43:49;;;;;;;12.13;10.77;;;;;;;;;;5014948;28;20094;-76
2023/08/20 10:46:22;;;;;;;11.75;10.43;;;;;;;;;;5015279;28;20029;-78
2023/08/20 10:49:18;;;;;;;14.10;10.93;;;;;;;;;;5015080;28;20116;-76
2023/08/20 10:51:48;;;;;;;11.50;10.23;;;;;;;;;;5014971;28;20091;-75
2023/08/20 10:54:19;;;;;;;12.32;10.25;;;;;;;;;;5015084;28;20029;-81
2023/08/20 10:57:00;;;;;;;14.50;10.00;;;;;;;;;;5014669;28;20039;-77
2023/08/20 10:59:30;;;;;;;;;;;;;;;;;;5032510;28;20067;-77
2023/08/20 11:02:03;;;;;;;11.43;10.23;;;;;;;;;;5017457;28;19909;-77
2023/08/20 11:04:35;;;;;;;12.50;9.45;;;;;;;;;;5041244;28;20070;-77
2023/08/20 11:07:03;;;;;;;10.60;9.43;;;;;;;;;;5045672;28;20026;-78
2023/08/20 11:09:31;;;;;;;12.27;9.35;;;;;;;;;;5043495;28;20038;-76
2023/08/20 11:11:58;;;;;;;15.63;9.90;;;;;;;;;;5031643;28;20025;-76
2023/08/20 11:14:25;;;;;;;13.70;8.75;;;;;;;;;;5030959;28;20033;-76
2023/08/20 11:16:52;;;;;;;12.73;8.88;;;;;;;;;;5014866;28;20091;-77
2023/08/20 11:19:22;;;;;;;6.78;6.18;;;;;;;;;;5018186;28;20060;-76
2023/08/20 11:21:51;;;;;;;10.05;8.70;;;;;;;;;;5018161;28;20040;-76
2023/08/20 11:24:20;;;;;;;11.93;9.00;;;;;;;;;;5017762;28;20033;-76
2023/08/20 11:26:48;;;;;;;9.18;8.27;;;;;;;;;;5001543;28;20032;-77
2023/08/20 11:29:19;;;;;;;9.88;8.45;;;;;;;;;;5017643;28;20370;-77
2023/08/20 11:31:46;;;;;;;13.10;8.57;;;;;;;;;;5017092;28;20112;-76
2023/08/20 11:34:12;;;;;;;12.57;7.72;;;;;;;;;;5001976;28;20029;-77
2023/08/20 11:36:43;;;;;;;9.60;7.80;;;;;;;;;;5035126;28;20046;-78
2023/08/20 11:39:09;;;;;;;9.23;7.03;;;;;;;;;;5018690;28;20071;-76
2023/08/20 11:41:41;;;;;;;9.63;8.27;;;;;;;;;;5018438;28;20037;-76
2023/08/20 11:44:11;;;;;;;9.55;7.38;;;;;;;;;;5018860;28;20123;-75
2023/08/20 11:46:45;;;;;;;10.68;7.72;;;;;;;;;;5018539;28;20028;-76
2023/08/20 11:49:12;;;;;;;11.45;7.70;;;;;;;;;;5035681;28;20432;-74
2023/08/20 11:51:49;;;;;;;11.13;7.82;;;;;;;;;;5035149;28;20053;-76
2023/08/20 11:54:17;;;;;;;10.50;7.00;;;;;;;;;;5018463;28;20413;-77
2023/08/20 11:56:53;;;;;;;7.88;7.10;;;;;;;;;;5019227;28;20030;-74
2023/08/20 11:59:22;;;;;;;9.88;6.97;;;;;;;;;;5018923;28;20029;-76
2023/08/20 12:02:25;;;;;;;10.43;8.05;;;;;;;;;;5035180;28;20044;-76
2023/08/20 12:04:55;;;;;;;8.63;7.82;;;;;;;;;;5035571;28;20108;-76
2023/08/20 12:07:29;;;;;;;11.60;8.75;;;;;;;;;;5036182;28;20099;-76
2023/08/20 12:09:57;;;;;;;8.43;7.20;;;;;;;;;;5017343;28;20036;-76
2023/08/20 12:12:25;;;;;;;11.43;7.63;;;;;;;;;;5016531;28;20060;-76
2023/08/20 12:14:52;;;;;;;11.07;6.97;;;;;;;;;;5032350;28;20025;-77
2023/08/20 12:17:21;;;;;;;9.38;7.18;;;;;;;;;;5016407;28;20037;-75
2023/08/20 12:19:46;;;;;;;9.20;6.07;;;;;;;;;;5016909;28;20032;-76
2023/08/20 12:22:16;;;;;;;8.57;6.10;;;;;;;;;;5034798;28;20480;-77
2023/08/20 12:24:46;;;;;;;12.30;7.88;;;;;;;;;;5034064;28;20033;-76
2023/08/20 12:27:12;;;;;;;10.55;7.53;;;;;;;;;;5016911;28;20041;-78
2023/08/20 12:29:38;;;;;;;7.75;6.95;;;;;;;;;;5035075;28;20378;-77
2023/08/20 12:32:12;;;;;;;10.80;6.93;;;;;;;;;;5034563;28;20389;-76
2023/08/20 12:34:42;;;;;;;11.02;7.55;;;;;;;;;;5017332;28;20036;-77
2023/08/20 12:37:40;;;;;;;10.05;7.15;;;;;;;;;;5033546;28;20045;-77
2023/08/20 12:40:12;;;;;;;12.63;7.20;;;;;;;;;;5016061;28;20512;-76
2023/08/20 12:42:41;;;;;;;8.88;6.68;;;;;;;;;;4985379;28;20122;-79
2023/08/20 12:45:45;;;;;;;10.40;7.38;;;;;;;;;;5033848;28;20044;-79
2023/08/20 12:48:15;;;;;;;7.43;6.72;;;;;;;;;;5034201;28;20446;-76
2023/08/20 12:50:41;;;;;;;11.45;7.22;;;;;;;;;;5017412;28;20047;-77
2023/08/20 12:53:12;;;;;;;7.88;6.50;;;;;;;;;;5016523;28;20032;-76
2023/08/20 12:55:40;;;;;;;10.90;6.75;;;;;;;;;;4999408;28;20191;-77
2023/08/20 12:58:28;;;;;;;8.15;7.07;;;;;;;;;;5034935;28;20065;-77
2023/08/20 13:00:56;;;;;;;8.02;6.35;;;;;;;;;;5017431;28;20028;-76
2023/08/20 13:03:41;;;;;;;10.50;6.70;;;;;;;;;;5017577;28;20037;-76
2023/08/20 13:06:07;;;;;;;16.85;7.22;;;;;;;;;;5034556;28;20481;-76
2023/08/20 13:08:33;;;;;;;7.45;6.68;;;;;;;;;;5018171;28;20037;-77
2023/08/20 13:11:15;;;;;;;5.97;5.40;;;;;;;;;;4998778;28;20027;-76
2023/08/20 13:13:47;;;;;;;10.43;6.10;;;;;;;;;;4997802;28;20030;-81
2023/08/20 13:16:22;;;;;;;6.25;5.63;;;;;;;;;;4998082;28;20050;-77
2023/08/20 13:19:11;;;;;;;5.80;5.22;;;;;;;;;;5006729;28;20514;-76
2023/08/20 13:21:37;;;;;;;5.63;5.03;;;;;;;;;;5014186;28;20050;-76
2023/08/20 13:24:08;;;;;;;8.50;6.65;;;;;;;;;;5015492;28;20263;-77
2023/08/20 13:26:37;;;;;;;6.20;5.35;;;;;;;;;;5014189;28;20486;-77
2023/08/20 13:29:03;;;;;;;7.50;5.30;;;;;;;;;;5015422;28;20029;-77
2023/08/20 13:31:32;;;;;;;8.43;5.15;;;;;;;;;;5014733;28;20426;-77
2023/08/20 13:33:58;;;;;;;6.97;4.70;;;;;;;;;;4997071;28;20434;-78
2023/08/20 13:36:29;;;;;;;5.70;5.10;;;;;;;;;;4996462;28;20034;-78
2023/08/20 13:38:56;;;;;;;10.80;5.03;;;;;;;;;;4979632;28;20045;-76
2023/08/20 13:41:21;;;;;;;6.43;5.40;;;;;;;;;;4996780;28;20114;-77
2023/08/20 13:44:00;;;;;;;11.40;5.57;;;;;;;;;;4996685;28;20112;-78
2023/08/20 13:46:26;;;;;;;7.57;5.88;;;;;;;;;;4996241;28;20053;-77
2023/08/20 13:48:55;;;;;;;6.35;5.15;;;;;;;;;;4996333;28;20053;-77
2023/08/20 13:51:22;;;;;;;7.77;5.13;;;;;;;;;;5010806;28;20516;-76
2023/08/20 13:53:48;;;;;;;13.05;7.90;;;;;;;;;;5013550;28;20034;-77
2023/08/20 13:56:15;;;;;;;6.65;5.25;;;;;;;;;;5012719;28;20022;-77
2023/08/20 13:58:40;;;;;;;8.40;5.38;;;;;;;;;;4995728;28;20026;-76
2023/08/20 14:01:06;;;;;;;7.07;4.75;;;;;;;;;;4997205;28;20028;-77
2023/08/20 14:03:32;;;;;;;9.15;4.80;;;;;;;;;;4996968;28;20093;-77
2023/08/20 14:05:58;;;;;;;5.90;5.40;;;;;;;;;;5012845;28;20057;-77
2023/08/20 14:08:26;;;;;;;7.18;4.80;;;;;;;;;;4996718;28;20030;-76
2023/08/20 14:10:53;;;;;;;8.27;5.25;;;;;;;;;;5015279;28;20025;-78
2023/08/20 14:13:24;;;;;;;9.50;5.72;;;;;;;;;;4996019;28;20561;-76
2023/08/20 14:15:53;;;;;;;;;;;;;;;;;;4995322;28;20050;-77
2023/08/20 14:18:21;;;;;;;7.72;5.47;;;;;;;;;;4994604;28;19909;-75
2023/08/20 14:20:56;;;;;;;11.75;5.93;;;;;;;;;;4995207;28;20033;-76
2023/08/20 14:23:22;;;;;;;10.60;5.78;;;;;;;;;;4979048;28;20025;-76
2023/08/20 14:25:58;;;;;;;7.75;5.60;;;;;;;;;;4995683;28;20080;-77
2023/08/20 14:28:24;;;;;;;6.22;5.63;;;;;;;;;;5013189;28;20034;-78
2023/08/20 14:30:53;;;;;;;8.43;5.80;;;;;;;;;;4994496;28;20478;-78
2023/08/20 14:33:20;;;;;;;13.52;6.43;;;;;;;;;;5012184;28;20026;-77